Time;durP1;ratioP1;P1;durP2;ratioP2;P2;SDS_P1;SDS_P2;PMS_P1;PMS_P2;Temp;Humidity;BMP_temperature;BMP_pressure;BME280_temperature;BME280_humidity;BME280_pressure;Samples;Min_cycle;Max_cycle;Signal;HPM_P1;HPM_P2
2022/10/29 00:01:54;;;;;;;20.10;6.43;;;;;;;20.74;51.01;99455.81;5052871;28;20025;-46
2022/10/29 00:04:20;;;;;;;24.13;7.00;;;;;;;20.58;51.39;99456.66;5054509;28;20031;-46
2022/10/29 00:06:47;;;;;;;23.80;7.50;;;;;;;20.39;52.01;99451.63;5086448;28;20128;-46
2022/10/29 00:09:13;;;;;;;17.65;7.45;;;;;;;20.24;52.23;99454.06;5054131;28;20025;-46
2022/10/29 00:11:39;;;;;;;27.23;7.80;;;;;;;20.05;53.66;99451.66;5054064;28;20031;-46
2022/10/29 00:14:05;;;;;;;18.23;6.70;;;;;;;19.92;54.07;99450.16;5053996;28;20029;-46
2022/10/29 00:16:36;;;;;;;15.18;7.40;;;;;;;19.73;54.83;99452.22;5052416;28;20135;-46
2022/10/29 00:19:05;;;;;;;20.17;7.57;;;;;;;19.59;55.59;99448.22;5053848;28;20028;-46
2022/10/29 00:21:33;;;;;;;20.13;7.05;;;;;;;19.48;55.54;99438.47;5053867;28;20021;-46
2022/10/29 00:23:59;;;;;;;15.63;7.20;;;;;;;19.40;55.62;99449.47;5052577;28;20029;-46
2022/10/29 00:26:27;;;;;;;22.17;7.78;;;;;;;19.41;56.09;99445.78;5053748;28;20039;-46
2022/10/29 00:28:55;;;;;;;12.85;5.93;;;;;;;19.34;56.21;99438.75;5052436;28;20048;-46
2022/10/29 00:31:23;;;;;;;20.02;7.40;;;;;;;19.34;56.18;99432.63;5053702;28;20025;-46
2022/10/29 00:33:49;;;;;;;17.45;6.53;;;;;;;19.33;56.16;99444.31;5085906;28;20071;-46
2022/10/29 00:36:18;;;;;;;16.33;7.00;;;;;;;19.34;56.03;99430.78;5052427;28;20578;-46
2022/10/29 00:38:44;;;;;;;18.00;7.45;;;;;;;19.38;56.32;99430.28;5085746;28;20028;-46
2022/10/29 00:41:14;;;;;;;23.70;6.95;;;;;;;19.35;56.42;99432.38;5053532;28;20025;-46
2022/10/29 00:43:45;;;;;;;25.20;8.57;;;;;;;19.35;57.38;99436.91;5053522;28;20118;-45
2022/10/29 00:46:27;;;;;;;20.45;8.50;;;;;;;19.33;57.47;99431.81;5085635;28;20029;-46
2022/10/29 00:48:55;;;;;;;17.73;7.18;;;;;;;19.36;57.10;99428.69;5053401;28;20488;-46
2022/10/29 00:51:22;;;;;;;20.90;8.00;;;;;;;19.28;57.45;99418.44;5051994;28;20025;-46
2022/10/29 00:54:01;;;;;;;20.23;7.35;;;;;;;19.17;58.24;99413.94;5051744;28;20017;-46
2022/10/29 00:56:30;;;;;;;20.48;8.77;;;;;;;19.13;57.74;99416.28;5053604;28;20024;-46
2022/10/29 00:58:56;;;;;;;21.73;8.27;;;;;;;19.13;58.27;99413.63;5053212;28;20020;-46
2022/10/29 01:01:22;;;;;;;17.77;7.53;;;;;;;19.22;58.53;99403.41;5053157;28;20033;-46
2022/10/29 01:03:48;;;;;;;23.65;7.47;;;;;;;19.30;58.15;99405.69;5053111;28;20151;-46
2022/10/29 01:06:14;;;;;;;20.85;8.43;;;;;;;19.60;57.56;99404.59;5051832;28;20107;-45
2022/10/29 01:08:40;;;;;;;17.70;8.02;;;;;;;19.87;55.60;99399.44;5051759;28;20117;-46
2022/10/29 01:11:33;;;;;;;28.02;8.60;;;;;;;19.93;55.63;99390.47;5052920;28;20036;-46
2022/10/29 01:14:20;;;;;;;20.25;8.15;;;;;;;19.88;55.48;99378.91;5052916;28;20021;-46
2022/10/29 01:17:19;;;;;;;26.77;6.50;;;;;;;19.94;55.52;99389.44;5052624;28;20048;-46
2022/10/29 01:20:23;;;;;;;22.35;6.45;;;;;;;20.13;54.83;99379.28;5052822;28;20060;-46
2022/10/29 01:23:07;;;;;;;15.77;6.63;;;;;;;20.14;54.73;99383.59;5084993;28;20033;-46
2022/10/29 01:25:54;;;;;;;18.63;7.13;;;;;;;20.03;54.06;99387.16;5052641;28;20025;-46
2022/10/29 01:28:38;;;;;;;25.80;7.22;;;;;;;20.09;55.06;99382.69;5052689;28;20582;-46
2022/10/29 01:31:22;;;;;;;23.67;7.32;;;;;;;20.54;53.95;99373.66;5052599;28;20029;-46
2022/10/29 01:33:51;;;;;;;17.50;6.65;;;;;;;20.79;52.73;99393.75;5051216;28;20033;-46
2022/10/29 01:36:30;;;;;;;16.75;6.97;;;;;;;20.72;51.83;99391.25;5052409;28;20025;-46
2022/10/29 01:39:05;;;;;;;21.73;7.28;;;;;;;20.68;52.19;99368.78;5052402;28;20857;-46
2022/10/29 01:41:50;;;;;;;21.30;6.55;;;;;;;20.96;51.60;99378.44;5051139;28;20060;-46
2022/10/29 01:44:24;;;;;;;24.65;7.65;;;;;;;21.00;51.26;99360.84;5052013;28;20127;-46
2022/10/29 01:46:58;;;;;;;18.42;6.93;;;;;;;21.12;50.65;99363.38;5052308;28;20025;-46
2022/10/29 01:49:32;;;;;;;15.15;6.35;;;;;;;21.18;49.54;99370.38;5084596;28;20029;-46
2022/10/29 01:52:01;;;;;;;24.38;6.40;;;;;;;20.94;50.24;99365.34;5050905;28;20032;-46
2022/10/29 01:54:27;;;;;;;18.55;5.90;;;;;;;20.68;50.60;99366.91;5052404;28;20029;-46
2022/10/29 01:56:58;;;;;;;22.15;6.80;;;;;;;20.48;51.09;99369.31;5052144;28;20471;-46
2022/10/29 01:59:28;;;;;;;22.48;7.30;;;;;;;20.33;51.66;99368.09;5050746;28;20025;-46
2022/10/29 02:02:21;;;;;;;19.90;6.65;;;;;;;20.13;51.33;99368.63;5084330;28;20024;-46
2022/10/29 02:04:53;;;;;;;19.05;6.13;;;;;;;20.12;51.58;99369.69;5050823;28;20029;-46
2022/10/29 02:07:27;;;;;;;16.27;5.47;;;;;;;20.00;51.34;99369.00;5051284;28;20108;-46
2022/10/29 02:10:15;;;;;;;18.02;6.90;;;;;;;19.91;51.71;99378.44;5084281;28;20039;-46
2022/10/29 02:12:50;;;;;;;25.65;7.30;;;;;;;19.95;51.03;99366.25;5051829;28;20013;-46
2022/10/29 02:15:47;;;;;;;17.30;6.07;;;;;;;19.95;50.65;99358.25;5050245;28;20048;-47
2022/10/29 02:18:13;;;;;;;21.10;6.45;;;;;;;19.87;50.43;99364.81;5050682;28;20566;-46
2022/10/29 02:20:44;;;;;;;26.23;7.72;;;;;;;19.93;51.68;99365.69;5033811;28;20026;-46
2022/10/29 02:23:10;;;;;;;17.08;6.28;;;;;;;19.99;50.27;99359.38;5050441;28;20017;-46
2022/10/29 02:25:36;;;;;;;21.02;6.65;;;;;;;19.87;51.43;99351.47;5051662;28;20079;-46
2022/10/29 02:28:01;;;;;;;18.33;6.20;;;;;;;19.86;50.53;99362.38;5051708;28;20029;-46
2022/10/29 02:30:27;;;;;;;17.63;5.88;;;;;;;19.86;49.56;99352.56;5051610;28;20506;-46
2022/10/29 02:32:53;;;;;;;14.35;5.22;;;;;;;19.90;49.42;99355.50;5051675;28;20487;-46
2022/10/29 02:35:18;;;;;;;16.00;6.05;;;;;;;19.93;49.32;99347.03;5050302;28;20024;-46
2022/10/29 02:37:44;;;;;;;17.40;6.25;;;;;;;19.94;48.52;99345.97;5050203;28;20025;-46
2022/10/29 02:40:10;;;;;;;12.02;6.00;;;;;;;19.94;48.23;99340.66;5051565;28;20017;-46
2022/10/29 02:42:36;;;;;;;21.55;7.88;;;;;;;19.79;49.55;99343.91;5051490;28;20043;-46
2022/10/29 02:45:02;;;;;;;13.55;5.95;;;;;;;19.68;49.63;99342.94;5051546;28;20017;-46
2022/10/29 02:47:27;;;;;;;18.80;6.60;;;;;;;19.53;50.14;99346.16;5051521;28;20110;-46
2022/10/29 02:49:53;;;;;;;19.17;5.88;;;;;;;19.43;50.35;99337.22;5050220;28;20032;-46
2022/10/29 02:52:19;;;;;;;18.30;6.10;;;;;;;19.42;49.50;99339.06;5051527;28;20071;-46
2022/10/29 02:54:44;;;;;;;20.90;6.13;;;;;;;19.41;50.27;99350.75;5051412;28;20028;-46
2022/10/29 02:57:13;;;;;;;22.75;6.38;;;;;;;19.29;50.74;99337.53;5051395;28;20032;-46
2022/10/29 02:59:39;;;;;;;19.55;7.18;;;;;;;19.16;51.32;99341.31;5051398;28;20033;-46
2022/10/29 03:02:04;;;;;;;17.55;6.47;;;;;;;19.06;51.50;99337.69;5051364;28;20028;-46
2022/10/29 03:04:30;;;;;;;20.08;6.55;;;;;;;19.03;52.16;99336.28;5051358;28;20025;-46
2022/10/29 03:06:55;;;;;;;18.65;6.70;;;;;;;19.00;51.96;99333.31;5051332;28;20505;-46
2022/10/29 03:09:21;;;;;;;22.02;6.97;;;;;;;18.96;52.24;99330.31;5050282;28;20039;-46
2022/10/29 03:11:47;;;;;;;16.23;6.32;;;;;;;18.87;52.88;99321.91;5033415;28;20483;-46
2022/10/29 03:14:13;;;;;;;21.67;7.25;;;;;;;18.91;52.92;99323.06;5051336;28;20051;-46
2022/10/29 03:16:38;;;;;;;19.77;7.18;;;;;;;18.82;53.28;99321.03;5050982;28;20040;-46
2022/10/29 03:19:04;;;;;;;19.88;6.80;;;;;;;18.66;53.88;99331.34;5054955;28;20012;-46
2022/10/29 03:21:30;;;;;;;17.17;6.35;;;;;;;18.53;54.39;99331.59;5055002;28;20108;-46
2022/10/29 03:23:55;;;;;;;22.75;6.53;;;;;;;18.35;55.08;99317.47;5054981;28;20028;-45
2022/10/29 03:26:21;;;;;;;15.05;6.15;;;;;;;18.31;56.33;99329.63;5053628;28;20029;-46
2022/10/29 03:28:46;;;;;;;22.23;6.65;;;;;;;18.42;56.41;99319.19;5053575;28;20490;-46
2022/10/29 03:31:12;;;;;;;19.23;6.93;;;;;;;18.54;55.93;99320.75;5054785;28;20060;-45
2022/10/29 03:33:38;;;;;;;21.42;7.35;;;;;;;18.58;55.72;99315.78;5053518;28;20017;-46
2022/10/29 03:36:05;;;;;;;18.48;6.60;;;;;;;18.49;56.38;99319.84;5054705;28;20064;-45
2022/10/29 03:38:32;;;;;;;21.20;6.75;;;;;;;18.50;56.09;99316.16;5054586;28;20616;-46
2022/10/29 03:40:58;;;;;;;20.80;7.03;;;;;;;18.42;56.16;99319.19;5054688;28;20364;-45
2022/10/29 03:43:23;;;;;;;16.75;6.43;;;;;;;18.39;56.57;99315.16;5086867;28;20028;-45
2022/10/29 03:45:54;;;;;;;15.57;5.80;;;;;;;18.46;57.60;99318.47;5054832;28;20509;-46
2022/10/29 03:48:21;;;;;;;17.55;6.60;;;;;;;18.69;56.38;99309.59;5054524;28;20116;-45
2022/10/29 03:50:55;;;;;;;15.80;6.53;;;;;;;18.75;56.48;99305.16;5053146;28;20414;-46
2022/10/29 03:53:21;;;;;;;24.90;6.00;;;;;;;18.94;55.93;99309.28;5054405;28;20021;-46
2022/10/29 03:55:50;;;;;;;21.90;6.45;;;;;;;19.07;55.68;99297.50;5086590;28;20029;-46
2022/10/29 03:58:15;;;;;;;23.23;6.93;;;;;;;19.31;55.09;99310.66;5086502;28;20025;-46
2022/10/29 04:00:56;;;;;;;22.05;6.80;;;;;;;19.34;54.14;99307.53;5086565;28;20483;-46
2022/10/29 04:03:22;;;;;;;14.45;6.78;;;;;;;19.22;54.78;99320.91;5054335;28;20024;-46
2022/10/29 04:05:47;;;;;;;23.67;7.03;;;;;;;19.30;55.47;99322.38;5086447;28;20025;-46
2022/10/29 04:08:13;;;;;;;18.23;7.35;;;;;;;19.33;54.54;99313.91;5069663;28;20029;-46
2022/10/29 04:10:43;;;;;;;19.75;6.45;;;;;;;19.34;54.82;99320.84;5086401;28;20056;-46
2022/10/29 04:13:09;;;;;;;17.35;6.78;;;;;;;19.31;54.31;99326.63;5054115;28;20507;-45
2022/10/29 04:15:35;;;;;;;18.55;6.75;;;;;;;19.29;54.39;99318.88;5086051;28;20043;-46
2022/10/29 04:18:00;;;;;;;18.35;6.00;;;;;;;19.29;54.57;99323.41;5053921;28;20029;-46
2022/10/29 04:20:26;;;;;;;21.42;7.55;;;;;;;19.27;53.70;99323.66;5086084;28;20056;-46
2022/10/29 04:22:51;;;;;;;12.88;5.93;;;;;;;19.25;54.20;99319.63;5052815;28;20037;-46
2022/10/29 04:25:17;;;;;;;15.35;5.70;;;;;;;19.33;53.50;99325.34;5053849;28;20017;-46
2022/10/29 04:27:42;;;;;;;16.40;6.78;;;;;;;19.28;53.00;99322.63;5086069;28;20558;-46
2022/10/29 04:30:08;;;;;;;20.63;6.70;;;;;;;19.19;53.01;99326.72;5051743;28;20028;-46
2022/10/29 04:32:34;;;;;;;19.52;6.22;;;;;;;19.13;53.49;99328.47;5052319;28;20033;-45
2022/10/29 04:35:00;;;;;;;16.70;7.10;;;;;;;19.09;53.90;99326.53;5052352;28;20511;-46
2022/10/29 04:37:28;;;;;;;23.60;6.95;;;;;;;19.11;54.25;99325.25;5053500;28;20032;-46
2022/10/29 04:39:54;;;;;;;18.30;6.82;;;;;;;19.13;53.63;99327.66;5053514;28;20032;-45
2022/10/29 04:42:19;;;;;;;18.85;6.72;;;;;;;19.04;53.36;99327.28;5085749;28;20029;-46
2022/10/29 04:44:45;;;;;;;20.58;5.88;;;;;;;18.87;53.69;99327.22;5052126;28;20025;-46
2022/10/29 04:47:10;;;;;;;18.80;6.70;;;;;;;18.78;54.38;99331.28;5053418;28;20028;-46
2022/10/29 04:49:36;;;;;;;12.68;6.30;;;;;;;18.91;54.01;99332.88;5085692;28;20024;-46
2022/10/29 04:52:02;;;;;;;23.52;6.85;;;;;;;18.96;54.07;99335.63;5053275;28;20029;-46
2022/10/29 04:54:27;;;;;;;18.63;6.00;;;;;;;18.99;53.41;99327.16;5085477;28;20053;-46
2022/10/29 04:56:53;;;;;;;14.82;5.95;;;;;;;19.11;53.52;99338.56;5051997;28;20569;-45
2022/10/29 04:59:18;;;;;;;17.50;6.80;;;;;;;19.09;53.24;99332.66;5051799;28;20024;-46
2022/10/29 05:01:44;;;;;;;16.88;6.20;;;;;;;19.04;53.64;99327.28;5053126;28;20040;-46
2022/10/29 05:04:10;;;;;;;16.52;6.88;;;;;;;19.08;53.07;99335.59;5053176;28;20021;-46
2022/10/29 05:06:35;;;;;;;20.10;6.75;;;;;;;18.90;52.62;99329.41;5085244;28;20119;-46
2022/10/29 05:09:01;;;;;;;18.17;6.18;;;;;;;18.76;52.87;99326.22;5035156;28;20029;-46
2022/10/29 05:11:27;;;;;;;17.83;6.25;;;;;;;18.66;52.77;99331.34;5051640;28;20021;-46
2022/10/29 05:13:53;;;;;;;15.75;6.20;;;;;;;18.62;52.77;99337.38;5052970;28;20029;-46
2022/10/29 05:16:18;;;;;;;18.33;7.35;;;;;;;18.53;53.05;99332.44;5052612;28;20045;-46
2022/10/29 05:18:44;;;;;;;17.38;6.32;;;;;;;18.54;53.07;99334.03;5051445;28;20029;-46
2022/10/29 05:21:09;;;;;;;12.45;5.65;;;;;;;18.46;53.75;99329.09;5034883;28;20479;-46
2022/10/29 05:23:35;;;;;;;14.32;6.00;;;;;;;18.42;53.87;99327.94;5051433;28;20032;-46
2022/10/29 05:26:00;;;;;;;19.20;6.47;;;;;;;18.41;53.81;99334.31;5051344;28;20459;-46
2022/10/29 05:28:26;;;;;;;21.73;6.55;;;;;;;18.37;54.42;99327.84;5084968;28;20032;-46
2022/10/29 05:30:52;;;;;;;18.48;6.60;;;;;;;18.38;54.24;99337.44;5051298;28;20388;-45
2022/10/29 05:33:22;;;;;;;15.43;6.05;;;;;;;18.30;54.31;99345.78;5051205;28;20487;-45
2022/10/29 05:35:48;;;;;;;21.48;6.25;;;;;;;18.30;54.55;99343.94;5052498;28;20029;-45
2022/10/29 05:38:14;;;;;;;15.00;6.15;;;;;;;18.24;55.41;99346.72;5051089;28;20111;-46
2022/10/29 05:40:41;;;;;;;20.83;6.18;;;;;;;18.28;55.03;99346.00;5051573;28;20021;-46
2022/10/29 05:43:07;;;;;;;17.15;6.82;;;;;;;18.28;55.36;99339.91;5052632;28;20039;-45
2022/10/29 05:45:33;;;;;;;16.92;6.75;;;;;;;18.25;55.13;99351.81;5084522;28;20383;-46
2022/10/29 05:48:01;;;;;;;19.98;6.28;;;;;;;18.23;55.68;99347.75;5052359;28;20557;-46
2022/10/29 05:50:28;;;;;;;14.55;6.15;;;;;;;18.19;55.39;99342.13;5052309;28;20021;-45
2022/10/29 05:52:58;;;;;;;15.65;6.22;;;;;;;18.14;55.26;99342.00;5052290;28;20017;-45
2022/10/29 05:55:25;;;;;;;17.88;6.00;;;;;;;18.05;55.54;99346.03;5052531;28;20033;-46
2022/10/29 05:57:55;;;;;;;15.07;5.93;;;;;;;18.01;55.72;99339.56;5084238;28;20018;-45
2022/10/29 06:00:21;;;;;;;20.67;6.63;;;;;;;18.05;55.67;99340.72;5051037;28;20479;-45
2022/10/29 06:02:47;;;;;;;19.58;6.35;;;;;;;18.06;55.42;99340.50;5052060;28;20139;-46
2022/10/29 06:05:13;;;;;;;17.35;5.97;;;;;;;18.04;55.42;99339.94;5052022;28;20025;-46
2022/10/29 06:07:38;;;;;;;15.32;6.15;;;;;;;18.01;55.28;99342.22;5052056;28;20035;-46
2022/10/29 06:10:05;;;;;;;16.88;5.95;;;;;;;17.97;55.88;99339.25;5067442;28;20053;-45
2022/10/29 06:12:31;;;;;;;20.17;6.50;;;;;;;17.95;56.77;99341.34;5051927;28;20056;-45
2022/10/29 06:14:57;;;;;;;16.35;6.00;;;;;;;18.23;56.51;99335.28;5051807;28;20021;-46
2022/10/29 06:17:23;;;;;;;25.95;6.30;;;;;;;18.45;55.56;99340.78;5051531;28;20055;-45
2022/10/29 06:19:48;;;;;;;13.40;5.97;;;;;;;18.83;55.47;99342.03;5051856;28;20032;-46
2022/10/29 06:22:14;;;;;;;20.25;5.85;;;;;;;19.44;53.45;99344.97;5050437;28;20120;-46
2022/10/29 06:24:40;;;;;;;18.45;6.78;;;;;;;19.75;52.79;99346.25;5051803;28;20032;-46
2022/10/29 06:27:05;;;;;;;16.15;6.13;;;;;;;19.86;51.91;99344.56;5051749;28;20426;-46
2022/10/29 06:29:31;;;;;;;24.55;7.28;;;;;;;19.85;52.30;99339.47;5051700;28;20029;-46
2022/10/29 06:31:56;;;;;;;30.27;7.28;;;;;;;20.28;51.71;99335.22;5051645;28;20033;-46
2022/10/29 06:34:22;;;;;;;16.95;5.38;;;;;;;20.68;50.46;99329.56;5083883;28;20017;-46
2022/10/29 06:36:48;;;;;;;25.40;8.45;;;;;;;20.96;49.40;99317.06;5051570;28;20075;-47
2022/10/29 06:39:13;;;;;;;26.33;6.32;;;;;;;21.27;48.55;99331.47;5083790;28;20491;-46
2022/10/29 06:41:39;;;;;;;21.83;6.35;;;;;;;21.65;47.93;99332.34;5051589;28;20037;-46
2022/10/29 06:44:04;;;;;;;20.40;6.18;;;;;;;21.80;47.13;99344.16;5051554;28;20021;-46
2022/10/29 06:46:30;;;;;;;16.85;6.25;;;;;;;21.71;47.24;99331.31;5051488;28;20025;-46
2022/10/29 06:48:55;;;;;;;25.90;6.40;;;;;;;21.86;47.10;99327.91;5051566;28;20021;-46
2022/10/29 06:51:24;;;;;;;20.75;6.00;;;;;;;21.97;46.49;99331.44;5050196;28;20025;-46
2022/10/29 06:53:50;;;;;;;20.80;5.53;;;;;;;22.07;46.36;99330.69;5055123;28;20078;-46
2022/10/29 06:56:15;;;;;;;34.15;6.35;;;;;;;22.39;45.52;99327.91;5054214;28;20028;-46
2022/10/29 06:58:41;;;;;;;19.48;6.00;;;;;;;22.73;45.06;99325.59;5070872;28;20025;-46
2022/10/29 07:01:06;;;;;;;26.08;7.40;;;;;;;22.96;44.45;99328.03;5055420;28;20103;-46
2022/10/29 07:03:32;;;;;;;19.38;5.93;;;;;;;23.17;43.33;99329.69;5055410;28;20024;-46
2022/10/29 07:05:58;;;;;;;25.73;6.75;;;;;;;23.15;43.38;99331.84;5055397;28;20048;-46
2022/10/29 07:08:25;;;;;;;20.25;6.35;;;;;;;23.27;42.51;99335.06;5055540;28;20111;-46
2022/10/29 07:10:52;;;;;;;22.85;5.65;;;;;;;23.40;42.50;99339.09;5053931;28;20051;-46
2022/10/29 07:13:18;;;;;;;26.27;5.93;;;;;;;23.46;41.74;99334.50;5055210;28;20490;-46
2022/10/29 07:15:44;;;;;;;23.08;5.38;;;;;;;23.45;42.44;99340.94;5053759;28;20045;-46
2022/10/29 07:18:10;;;;;;;20.70;5.78;;;;;;;23.72;41.49;99338.78;5055051;28;20035;-46
2022/10/29 07:20:42;;;;;;;21.30;5.97;;;;;;;23.77;41.07;99339.84;5055045;28;20104;-46
2022/10/29 07:23:09;;;;;;;41.35;6.88;;;;;;;23.80;41.37;99342.00;5087262;28;20025;-46
2022/10/29 07:25:36;;;;;;;15.20;5.10;;;;;;;24.02;40.23;99347.81;5087249;28;20032;-46
2022/10/29 07:28:10;;;;;;;17.73;5.85;;;;;;;23.88;40.72;99358.31;5054909;28;20032;-46
2022/10/29 07:30:36;;;;;;;21.40;5.68;;;;;;;23.96;40.13;99361.53;5053630;28;20494;-46
2022/10/29 07:33:02;;;;;;;12.80;4.63;;;;;;;24.02;40.03;99363.13;5054846;28;20048;-46
2022/10/29 07:35:28;;;;;;;24.10;5.70;;;;;;;24.16;39.87;99358.78;5054814;28;20024;-46
2022/10/29 07:37:59;;;;;;;22.15;5.10;;;;;;;24.47;39.41;99356.81;5054715;28;20058;-46
2022/10/29 07:40:25;;;;;;;21.77;6.00;;;;;;;24.70;38.97;99360.72;5087032;28;20510;-46
2022/10/29 07:42:52;;;;;;;20.08;5.78;;;;;;;24.61;38.37;99364.25;5054646;28;20036;-46
2022/10/29 07:45:17;;;;;;;22.00;5.75;;;;;;;24.43;38.54;99371.03;5054568;28;20037;-46
2022/10/29 07:47:43;;;;;;;18.75;5.20;;;;;;;24.35;39.47;99367.06;5054660;28;20376;-46
2022/10/29 07:50:09;;;;;;;21.25;5.32;;;;;;;24.68;37.95;99368.25;5054493;28;20040;-46
2022/10/29 07:52:36;;;;;;;16.80;5.57;;;;;;;24.58;37.63;99364.81;5054505;28;20061;-46
2022/10/29 07:55:01;;;;;;;16.83;4.45;;;;;;;24.55;37.46;99368.88;5053118;28;20025;-46
2022/10/29 07:57:27;;;;;;;13.77;5.10;;;;;;;24.37;37.68;99367.56;5054346;28;20028;-46
2022/10/29 07:59:53;;;;;;;21.77;5.15;;;;;;;24.44;38.68;99378.81;5053046;28;20036;-46
2022/10/29 08:02:19;;;;;;;23.33;6.53;;;;;;;24.96;37.33;99371.31;5054247;28;20021;-46
2022/10/29 08:04:44;;;;;;;14.50;4.95;;;;;;;25.24;35.61;99371.69;5053183;28;20028;-46
2022/10/29 08:07:10;;;;;;;10.20;4.22;;;;;;;25.35;34.93;99375.91;5054169;28;20028;-46
2022/10/29 08:09:35;;;;;;;17.20;5.53;;;;;;;25.08;34.97;99369.09;5054162;28;20048;-46
2022/10/29 08:12:03;;;;;;;15.45;5.10;;;;;;;24.79;35.90;99370.88;5054143;28;20151;-46
2022/10/29 08:14:29;;;;;;;19.38;5.97;;;;;;;24.51;36.46;99373.97;5054048;28;20024;-46
2022/10/29 08:16:55;;;;;;;14.25;5.28;;;;;;;24.51;36.31;99379.34;5035866;28;20055;-46
2022/10/29 08:19:21;;;;;;;15.23;4.65;;;;;;;24.61;36.02;99377.69;5053891;28;20479;-46
2022/10/29 08:21:47;;;;;;;13.32;4.32;;;;;;;24.62;35.57;99366.69;5053893;28;20518;-46
2022/10/29 08:24:13;;;;;;;11.50;4.50;;;;;;;24.59;35.96;99369.09;5053914;28;20029;-46
2022/10/29 08:26:38;;;;;;;12.63;4.22;;;;;;;24.61;35.83;99366.94;5053835;28;20027;-46
2022/10/29 08:29:04;;;;;;;18.50;5.03;;;;;;;24.88;35.34;99366.53;5053812;28;20025;-46
2022/10/29 08:31:30;;;;;;;13.57;4.88;;;;;;;25.32;34.96;99368.41;5053666;28;20028;-46
2022/10/29 08:33:55;;;;;;;15.65;4.85;;;;;;;25.26;36.74;99364.97;5053719;28;20120;-46
2022/10/29 08:36:21;;;;;;;15.27;4.20;;;;;;;25.01;35.24;99363.25;5052682;28;20021;-46
2022/10/29 08:38:47;;;;;;;18.85;4.93;;;;;;;25.10;36.25;99353.50;5085800;28;20532;-46
2022/10/29 08:41:23;;;;;;;15.88;4.90;;;;;;;25.28;34.45;99362.78;5053834;28;20044;-46
2022/10/29 08:44:24;;;;;;;19.33;4.35;;;;;;;25.51;34.13;99353.22;5053599;28;20490;-46
2022/10/29 08:47:15;;;;;;;12.75;4.13;;;;;;;25.61;33.64;99348.81;5053471;28;20483;-46
2022/10/29 08:50:25;;;;;;;26.90;7.43;;;;;;;25.73;33.74;99353.81;5085702;28;20043;-46
2022/10/29 08:52:51;;;;;;;20.55;5.88;;;;;;;25.70;33.50;99352.50;5085663;28;20033;-46
2022/10/29 08:55:25;;;;;;;13.98;5.57;;;;;;;26.00;33.53;99348.72;5053249;28;20036;-46
2022/10/29 08:57:55;;;;;;;30.00;17.80;;;;;;;26.10;33.13;99342.41;5052336;28;20116;-46
2022/10/29 09:00:26;;;;;;;18.13;5.60;;;;;;;26.09;33.06;99346.19;5053189;28;20749;-46
2022/10/29 09:02:57;;;;;;;15.82;5.10;;;;;;;26.20;33.15;99342.28;5053299;28;20033;-46
2022/10/29 09:05:36;;;;;;;18.05;4.75;;;;;;;26.24;32.69;99348.72;5053124;28;20054;-46
2022/10/29 09:08:01;;;;;;;14.00;4.70;;;;;;;26.26;32.66;99349.22;5051899;28;20120;-46
2022/10/29 09:10:43;;;;;;;11.02;5.43;;;;;;;26.40;32.85;99345.81;5052946;28;20563;-47
2022/10/29 09:13:08;;;;;;;16.88;4.97;;;;;;;26.95;32.50;99345.38;5053019;28;20040;-46
2022/10/29 09:15:49;;;;;;;22.65;5.57;;;;;;;26.90;32.11;99351.59;5052490;28;20041;-47
2022/10/29 09:18:32;;;;;;;17.52;4.00;;;;;;;27.09;31.48;99347.00;5052853;28;20143;-46
2022/10/29 09:21:25;;;;;;;10.88;4.75;;;;;;;27.44;30.99;99344.06;5052848;28;20032;-46
2022/10/29 09:24:08;;;;;;;12.30;4.72;;;;;;;27.98;30.10;99345.25;5053096;28;20036;-46
2022/10/29 09:27:04;;;;;;;18.10;5.00;;;;;;;28.61;29.67;99348.31;5052927;28;20438;-47
2022/10/29 09:30:23;;;;;;;14.98;4.50;;;;;;;28.99;29.07;99343.38;5052716;28;20032;-47
2022/10/29 09:32:56;;;;;;;10.43;4.63;;;;;;;29.02;28.07;99355.50;5030369;28;20042;-47
2022/10/29 09:35:39;;;;;;;11.55;4.60;;;;;;;28.87;28.17;99343.13;5013885;28;20029;-47
2022/10/29 09:38:18;;;;;;;13.25;4.40;;;;;;;28.59;28.97;99355.94;5013734;28;20065;-47
2022/10/29 09:40:44;;;;;;;19.13;5.50;;;;;;;28.71;29.18;99342.69;5030381;28;20410;-46
2022/10/29 09:43:36;;;;;;;22.13;4.90;;;;;;;29.14;27.90;99347.69;5013665;28;20099;-47
2022/10/29 09:46:17;;;;;;;15.18;4.63;;;;;;;29.08;27.36;99341.56;5030241;28;20116;-47
2022/10/29 09:49:06;;;;;;;12.57;4.47;;;;;;;28.85;27.90;99337.25;5013616;28;20029;-46
2022/10/29 09:51:40;;;;;;;15.65;5.28;;;;;;;28.52;28.58;99344.75;5030174;28;20116;-47
2022/10/29 09:54:06;;;;;;;11.48;4.10;;;;;;;28.45;28.24;99343.25;5030095;28;20184;-47
2022/10/29 09:56:32;;;;;;;13.77;4.75;;;;;;;28.41;28.28;99346.81;5030044;28;20113;-47
2022/10/29 09:59:28;;;;;;;14.77;5.78;;;;;;;28.63;28.15;99343.41;5029965;28;20403;-47
2022/10/29 10:01:57;;;;;;;13.18;4.20;;;;;;;29.24;28.11;99352.84;5030007;28;20033;-47
2022/10/29 10:04:28;;;;;;;11.57;4.10;;;;;;;29.91;26.86;99326.78;5048261;28;20037;-47
2022/10/29 10:07:06;;;;;;;15.50;4.82;;;;;;;30.05;26.72;99341.00;5052095;28;20028;-47
2022/10/29 10:09:53;;;;;;;18.35;4.60;;;;;;;29.83;26.66;99336.47;5051971;28;20125;-47
2022/10/29 10:12:22;;;;;;;23.75;5.30;;;;;;;29.40;27.42;99341.63;5050680;28;20032;-47
2022/10/29 10:14:48;;;;;;;18.63;4.93;;;;;;;28.91;27.95;99338.72;5050608;28;20116;-47
2022/10/29 10:17:14;;;;;;;14.57;4.85;;;;;;;29.04;27.62;99345.97;5050372;28;20187;-47
2022/10/29 10:19:47;;;;;;;14.90;4.90;;;;;;;29.23;27.74;99340.41;5051677;28;20036;-47
2022/10/29 10:22:23;;;;;;;14.20;4.60;;;;;;;29.33;27.43;99335.88;5051821;28;20495;-47
2022/10/29 10:24:49;;;;;;;12.77;5.10;;;;;;;29.44;27.57;99338.00;5051651;28;20021;-47
2022/10/29 10:27:17;;;;;;;13.13;4.53;;;;;;;29.53;27.56;99338.03;5051206;28;20044;-47
2022/10/29 10:30:03;;;;;;;13.30;4.43;;;;;;;29.29;27.27;99346.50;5083963;28;20380;-47
2022/10/29 10:32:29;;;;;;;16.02;4.60;;;;;;;28.93;28.12;99335.72;5051626;28;20029;-47
2022/10/29 10:34:55;;;;;;;18.77;4.57;;;;;;;28.73;28.72;99326.19;5051651;28;20154;-47
2022/10/29 10:37:21;;;;;;;17.60;4.80;;;;;;;28.61;28.96;99327.50;5051711;28;20104;-47
2022/10/29 10:39:51;;;;;;;14.82;4.90;;;;;;;28.48;29.18;99326.41;5051565;28;20028;-47
2022/10/29 10:42:19;;;;;;;12.13;5.13;;;;;;;28.52;29.06;99315.06;5051719;28;20036;-47
2022/10/29 10:44:53;;;;;;;14.80;5.05;;;;;;;28.46;29.13;99312.41;5051671;28;20029;-46
2022/10/29 10:47:23;;;;;;;14.53;6.00;;;;;;;28.60;29.58;99306.22;5051684;28;20024;-47
2022/10/29 10:49:49;;;;;;;18.70;4.93;;;;;;;28.75;28.85;99305.06;5051861;28;20096;-47
2022/10/29 10:52:25;;;;;;;18.42;5.20;;;;;;;28.57;28.92;99317.63;5050495;28;20025;-47
2022/10/29 10:54:56;;;;;;;17.80;5.00;;;;;;;28.36;29.52;99311.84;5051792;28;20447;-47
2022/10/29 10:57:28;;;;;;;12.25;4.63;;;;;;;28.47;29.62;99303.22;5083846;28;20036;-46
2022/10/29 11:00:16;;;;;;;21.27;5.20;;;;;;;28.37;30.08;99295.34;5051530;28;20048;-47
2022/10/29 11:02:55;;;;;;;19.08;5.40;;;;;;;28.72;29.54;99297.59;5051441;28;20056;-47
2022/10/29 11:05:28;;;;;;;17.23;5.15;;;;;;;29.19;29.16;99290.75;5051431;28;20147;-47
2022/10/29 11:08:15;;;;;;;18.92;5.03;;;;;;;29.47;28.66;99282.50;5051422;28;20025;-47
2022/10/29 11:11:07;;;;;;;17.65;4.80;;;;;;;29.34;28.29;99277.97;5051368;28;20025;-47
2022/10/29 11:13:33;;;;;;;16.08;4.63;;;;;;;28.88;28.90;99279.91;5051638;28;20448;-47
2022/10/29 11:16:19;;;;;;;13.75;4.90;;;;;;;28.78;29.47;99280.94;5051056;28;20045;-47
2022/10/29 11:19:14;;;;;;;11.90;4.55;;;;;;;28.37;29.94;99281.84;5050066;28;20384;-46
2022/10/29 11:22:03;;;;;;;17.75;5.50;;;;;;;28.39;30.34;99276.13;5046182;28;20461;-46
2022/10/29 11:25:15;;;;;;;20.10;8.10;;;;;;;28.33;30.36;99270.03;5051531;28;20402;-47
2022/10/29 11:28:07;;;;;;;17.27;8.25;;;;;;;28.27;30.16;99266.69;5049461;28;20094;-47
2022/10/29 11:30:41;;;;;;;14.38;6.25;;;;;;;28.33;30.38;99263.84;5048157;28;20449;-46
2022/10/29 11:33:24;;;;;;;15.85;6.03;;;;;;;28.25;30.09;99252.69;5049954;28;20025;-47
2022/10/29 11:35:55;;;;;;;12.90;5.40;;;;;;;28.24;30.17;99261.88;5083337;28;20094;-47
2022/10/29 11:38:46;;;;;;;17.88;5.57;;;;;;;28.40;30.37;99258.84;5051994;28;20025;-47
2022/10/29 11:41:30;;;;;;;19.52;7.20;;;;;;;28.49;29.88;99254.28;5054842;28;20040;-47